Ursvikens väder

stationens status  
Klimatstatistik

Klimatstatistik


Report for 2009 Dec
                   Monthly Climatological Summary for dec 2009

Name: Ursviken   City:    State: 
Elevation: 35 m  Lat: N 64° 42' 41"   Lon: E 021° 10' 44"

                  Temperature (°C), Rain (mm), Wind Speed (m/s)

                                      Heat  Cool        Avg
    Mean                              Deg   Deg         Wind                 Dom
Day Temp  High   Time   Low    Time   Days  Days  Rain  Speed High   Time    Dir
----------------------------------------------------------------------------------
 1  -4,2  -0,4   00:00  -8,0   00:00  22,4   0,0   0,0  ----   0,0   00:00   ---
 2  -3,9  -0,3   00:00  -7,5   00:00  22,2   0,0   0,0  ----   0,0   00:00   ---
 3  -8,4  -5,9   00:00 -10,9   00:00  26,7   0,0   0,0  ----   0,0   00:00   ---
 4  -5,3  -3,0   00:00  -7,8   00:00  23,6   0,3   0,0  ----   0,0   00:00   ---
 5  -2,3  -0,4   00:00  -4,4   00:00  20,6   0,0   0,0  ----   0,0   00:00   ---
 6  -0,2   0,3   00:00  -0,6   00:00  18,4   0,0   0,0  ----   0,0   00:00   ---
 7  -0,3   0,3   00:00  -0,9   00:00   3,0   0,0   0,0  ----   0,0   00:00     S
 8   0,5   0,8   00:00   0,3   00:00  17,8   0,0   0,0  ----   0,0   00:00   ---
 9   1,0   1,6   00:00   0,6   00:00  17,3   0,0   0,0  ----   0,0   00:00   ---
10  -1,9   0,9   00:00  -4,6   00:00   9,1   0,0   0,0  ----   0,0   00:00     S
11  -3,5  -2,6   00:00  -4,4   00:00  21,8   0,0   0,0  ----   0,0   00:00   ---
12  -3,7  -1,7   00:00  -5,8   00:00  22,0   0,0   0,0  ----   0,0   00:00   ---
13  -4,1  -1,3   00:00  -7,0   00:00  11,7   0,0   0,0  ----   0,0   00:00     S
14  -7,5  -6,6   00:00  -8,5   00:00  25,8   0,0   0,0  ----   0,0   00:00   ---
15  -7,5  -5,9   00:00  -9,1   00:00  25,8   0,0   0,0  ----   0,0   00:00   ---
16 -12,1  -9,1   00:00 -15,3   00:00  30,4   0,0   0,0  ----   0,0   00:00   ---
17 -18,2 -15,1   00:00 -21,4   00:00  36,5   0,0   0,0  ----   0,0   00:00   ---
18 -13,8  -8,9   00:00 -18,8   00:00  32,1   0,0   0,0   0,0   0,3   00:00   ---
19  -7,9  -4,9   00:00 -11,0   00:00  26,3   0,0   0,0   0,1   2,4   00:00   ---
20  -7,8  -3,5   00:00 -12,1   00:00  26,1   0,0   0,3   0,9   9,5   00:00   ---
21  -7,1  -5,3   00:00  -8,8   00:00  25,3   0,0   0,3   0,9   6,1   00:00   ---
22 -11,8  -8,6   00:00 -15,0   00:00  30,1   0,0   0,0   0,2   4,8   00:00   ---
23  -8,4  -3,9   00:00 -12,8   00:00  26,6   0,0   0,0   0,2   4,1   00:00   ---
24 -11,5  -5,3   00:00 -17,7   00:00  29,8   0,0   0,0   1,2   6,8   00:00   ---
25 -14,9 -12,7   00:00 -17,0   00:00  33,2   0,0   0,0   0,9   4,4   00:00   ---
26 -13,6 -12,4   00:00 -14,7   00:00  31,8   0,0   0,0   1,8   7,1   00:00   ---
27 -11,4  -8,3   00:00 -14,5   00:00  29,7   0,0   0,0   1,4   7,1   00:00   ---
28 -11,9  -5,8   00:00 -17,9   00:00  30,1   0,0   0,0   0,9   6,1   00:00   ---
29 -17,8 -11,9   00:00 -23,6   00:00  36,0   0,0   0,0   0,4   3,1   00:00   ---
30 -17,5 -11,4   00:00 -23,5   00:00  35,8   0,0   0,0   0,3   4,4   00:00   ---
31 -10,4  -9,1   00:00 -11,6   00:00  28,6   0,0   0,0   1,7   7,1   00:00   ---
----------------------------------------------------------------------------------
    -8,0   1,6     9   -23,6    29   776,9   0,3   0,6   0,8   9,5    20     ---

Max >=  20,0:  0
Max <=   0,0: 26
Min <=   0,0: 29
Min <= -20,0:  3
Max Rain: 0,3 on day 20
Days of Rain: 2 (>= 0,2 mm)  0 (>= 2,0 mm)  0 (>= 20,0 mm)
Heat Base: 18,3  Cool Base: 18,3  Method: Integration
 
: nu: mätare: diagram: idag och igår: månad och år: rekord: månadsrekord: statistik:
Startsidan Ursviken Örviken

Välkommen till Lundströms väder
Väderstationen som används är en WH1080, Uppdaterad 2024-06-13 15:50:01
skapad av Cumulus v1.9.4 (10992)
Forum
sedan 22 dec 2012